FLJ124 EGHQ-EGTK
Flight info
| Callsign | FLJ124 |
|---|---|
| Flight time | 0h 57m |
| Altitude | 25000 |
| Route | EXMOR DCT CONKO |
| Aircraft | PC12/L-SDFGRWY/S |
Departure
| Time | 2026-04-21 20:22 |
|---|---|
| Airport | Cornwall Airport Newquay (EGHQ) |
Arrival
| Time | 2026-04-21 21:19 |
|---|---|
| Airport | London Oxford Airport (EGTK) |
| Time | Latitude | Longitude | Altitude | Speed | Heading |
|---|---|---|---|---|---|
| 2026-04-21 20:02 | 50.44666 | -5.00449 | 325 ft | 0 kts | 130° |
| 2026-04-21 20:03 | 50.44693 | -5.00511 | 325 ft | 0 kts | 14° |
| 2026-04-21 20:03 | 50.44698 | -5.00520 | 326 ft | 0 kts | 117° |
| 2026-04-21 20:18 | 50.44691 | -5.00503 | 325 ft | 5 kts | 137° |
| 2026-04-21 20:18 | 50.44668 | -5.00555 | 325 ft | 11 kts | 261° |
| 2026-04-21 20:19 | 50.44726 | -5.00721 | 321 ft | 21 kts | 300° |
| 2026-04-21 20:19 | 50.44797 | -5.00920 | 316 ft | 2 kts | 292° |
| 2026-04-21 20:19 | 50.44802 | -5.01028 | 314 ft | 14 kts | 259° |
| 2026-04-21 20:19 | 50.44772 | -5.01116 | 312 ft | 0 kts | 213° |
| 2026-04-21 20:20 | 50.44760 | -5.01126 | 312 ft | 0 kts | 208° |
| 2026-04-21 20:21 | 50.44754 | -5.01131 | 312 ft | 6 kts | 212° |
| 2026-04-21 20:21 | 50.44687 | -5.01159 | 312 ft | 10 kts | 132° |
| 2026-04-21 20:21 | 50.44619 | -5.00973 | 316 ft | 38 kts | 120° |
| 2026-04-21 20:21 | 50.44364 | -5.00308 | 336 ft | 101 kts | 115° |
| 2026-04-21 20:22 | 50.43940 | -4.99231 | 536 ft | 126 kts | 126° |
| 2026-04-21 20:22 | 50.42877 | -4.96976 | 1637 ft | 136 kts | 126° |
| 2026-04-21 20:22 | 50.42286 | -4.95896 | 2351 ft | 128 kts | 123° |
| 2026-04-21 20:23 | 50.41994 | -4.94600 | 2849 ft | 131 kts | 94° |
| 2026-04-21 20:23 | 50.42371 | -4.93198 | 3231 ft | 156 kts | 59° |
| 2026-04-21 20:23 | 50.43298 | -4.92167 | 3765 ft | 166 kts | 44° |
| 2026-04-21 20:23 | 50.44303 | -4.91262 | 4336 ft | 169 kts | 40° |
| 2026-04-21 20:24 | 50.45379 | -4.90430 | 4750 ft | 180 kts | 34° |
| 2026-04-21 20:24 | 50.46564 | -4.89679 | 5198 ft | 184 kts | 33° |
| 2026-04-21 20:24 | 50.47731 | -4.88852 | 5737 ft | 183 kts | 34° |
| 2026-04-21 20:24 | 50.48491 | -4.88276 | 6096 ft | 183 kts | 33° |
| 2026-04-21 20:25 | 50.50025 | -4.87076 | 6676 ft | 188 kts | 35° |
| 2026-04-21 20:25 | 50.50927 | -4.85676 | 7072 ft | 182 kts | 66° |
| 2026-04-21 20:25 | 50.51261 | -4.84472 | 7355 ft | 182 kts | 73° |
| 2026-04-21 20:25 | 50.52106 | -4.82122 | 7916 ft | 187 kts | 59° |
| 2026-04-21 20:26 | 50.52623 | -4.81034 | 8209 ft | 188 kts | 57° |
| 2026-04-21 20:26 | 50.53420 | -4.79393 | 8649 ft | 188 kts | 57° |
| 2026-04-21 20:26 | 50.54191 | -4.77735 | 9103 ft | 188 kts | 58° |
| 2026-04-21 20:26 | 50.54958 | -4.76057 | 9562 ft | 188 kts | 58° |
| 2026-04-21 20:27 | 50.55717 | -4.74406 | 10009 ft | 189 kts | 57° |
| 2026-04-21 20:27 | 50.56491 | -4.72727 | 10424 ft | 190 kts | 57° |
| 2026-04-21 20:27 | 50.57272 | -4.71036 | 10828 ft | 191 kts | 57° |
| 2026-04-21 20:27 | 50.58054 | -4.69336 | 11231 ft | 193 kts | 57° |
| 2026-04-21 20:28 | 50.58843 | -4.67617 | 11632 ft | 195 kts | 56° |
| 2026-04-21 20:28 | 50.59643 | -4.65877 | 12049 ft | 196 kts | 56° |
| 2026-04-21 20:28 | 50.60438 | -4.64147 | 12458 ft | 198 kts | 56° |
| 2026-04-21 20:28 | 50.61252 | -4.62377 | 12868 ft | 200 kts | 56° |
| 2026-04-21 20:29 | 50.62070 | -4.60593 | 13285 ft | 202 kts | 55° |
| 2026-04-21 20:29 | 50.62895 | -4.58793 | 13700 ft | 203 kts | 55° |
| 2026-04-21 20:29 | 50.63727 | -4.56977 | 14106 ft | 205 kts | 55° |
| 2026-04-21 20:29 | 50.64565 | -4.55146 | 14475 ft | 207 kts | 54° |
| 2026-04-21 20:30 | 50.65400 | -4.53319 | 14847 ft | 208 kts | 54° |
| 2026-04-21 20:30 | 50.66246 | -4.51468 | 15222 ft | 209 kts | 54° |
| 2026-04-21 20:30 | 50.67098 | -4.49602 | 15604 ft | 211 kts | 53° |
| 2026-04-21 20:30 | 50.67955 | -4.47727 | 15982 ft | 212 kts | 53° |
| 2026-04-21 20:31 | 50.68819 | -4.45831 | 16378 ft | 213 kts | 53° |
| 2026-04-21 20:31 | 50.69684 | -4.43930 | 16762 ft | 213 kts | 53° |
| 2026-04-21 20:31 | 50.70541 | -4.42045 | 17148 ft | 214 kts | 52° |
| 2026-04-21 20:31 | 50.71413 | -4.40130 | 17530 ft | 215 kts | 52° |
| 2026-04-21 20:32 | 50.72289 | -4.38205 | 17935 ft | 216 kts | 52° |
| 2026-04-21 20:32 | 50.73164 | -4.36276 | 18329 ft | 216 kts | 51° |
| 2026-04-21 20:32 | 50.74041 | -4.34345 | 18698 ft | 217 kts | 51° |
| 2026-04-21 20:32 | 50.74922 | -4.32403 | 19041 ft | 217 kts | 51° |
| 2026-04-21 20:33 | 50.75805 | -4.30456 | 19383 ft | 218 kts | 50° |
| 2026-04-21 20:33 | 50.76691 | -4.28502 | 19727 ft | 219 kts | 51° |
| 2026-04-21 20:33 | 50.77567 | -4.26565 | 20070 ft | 220 kts | 50° |
| 2026-04-21 20:33 | 50.78459 | -4.24593 | 20421 ft | 220 kts | 50° |
| 2026-04-21 20:34 | 50.79353 | -4.22615 | 20767 ft | 221 kts | 50° |
| 2026-04-21 20:34 | 50.80249 | -4.20633 | 21125 ft | 221 kts | 50° |
| 2026-04-21 20:34 | 50.81144 | -4.18649 | 21482 ft | 222 kts | 50° |
| 2026-04-21 20:34 | 50.82028 | -4.16687 | 21842 ft | 222 kts | 50° |
| 2026-04-21 20:35 | 50.82929 | -4.14687 | 22205 ft | 223 kts | 50° |
| 2026-04-21 20:35 | 50.83834 | -4.12679 | 22574 ft | 223 kts | 50° |
| 2026-04-21 20:35 | 50.84736 | -4.10676 | 22938 ft | 224 kts | 50° |
| 2026-04-21 20:35 | 50.85641 | -4.08666 | 23298 ft | 224 kts | 50° |
| 2026-04-21 20:36 | 50.86534 | -4.06681 | 23664 ft | 225 kts | 50° |
| 2026-04-21 20:36 | 50.87441 | -4.04662 | 23991 ft | 225 kts | 49° |
| 2026-04-21 20:36 | 50.88353 | -4.02630 | 24296 ft | 226 kts | 49° |
| 2026-04-21 20:36 | 50.89267 | -4.00590 | 24601 ft | 227 kts | 49° |
| 2026-04-21 20:37 | 50.90183 | -3.98543 | 24911 ft | 228 kts | 49° |
| 2026-04-21 20:37 | 50.91106 | -3.96481 | 25198 ft | 231 kts | 49° |
| 2026-04-21 20:37 | 50.92058 | -3.94347 | 25212 ft | 245 kts | 50° |
| 2026-04-21 20:37 | 50.93063 | -3.92089 | 25216 ft | 261 kts | 50° |
| 2026-04-21 20:38 | 50.94141 | -3.89663 | 25220 ft | 274 kts | 51° |
| 2026-04-21 20:38 | 50.95259 | -3.87138 | 25224 ft | 284 kts | 50° |
| 2026-04-21 20:38 | 50.96414 | -3.84550 | 25229 ft | 290 kts | 50° |
| 2026-04-21 20:38 | 50.97581 | -3.81949 | 25227 ft | 294 kts | 50° |
| 2026-04-21 20:39 | 50.98768 | -3.79287 | 25221 ft | 297 kts | 50° |
| 2026-04-21 20:39 | 50.99968 | -3.76580 | 25229 ft | 299 kts | 50° |
| 2026-04-21 20:39 | 51.01165 | -3.73874 | 25233 ft | 300 kts | 50° |
| 2026-04-21 20:39 | 51.02369 | -3.71161 | 25230 ft | 301 kts | 50° |
| 2026-04-21 20:40 | 51.03562 | -3.68473 | 25231 ft | 301 kts | 50° |
| 2026-04-21 20:40 | 51.04765 | -3.65750 | 25238 ft | 302 kts | 50° |
| 2026-04-21 20:40 | 51.05973 | -3.63015 | 25233 ft | 302 kts | 50° |
| 2026-04-21 20:40 | 51.07186 | -3.60267 | 25239 ft | 302 kts | 50° |
| 2026-04-21 20:41 | 51.08390 | -3.57536 | 25235 ft | 302 kts | 50° |
| 2026-04-21 20:41 | 51.09597 | -3.54796 | 25244 ft | 302 kts | 50° |
| 2026-04-21 20:41 | 51.10787 | -3.52092 | 25245 ft | 302 kts | 50° |
| 2026-04-21 20:41 | 51.11995 | -3.49346 | 25255 ft | 302 kts | 50° |
| 2026-04-21 20:42 | 51.13202 | -3.46596 | 25261 ft | 302 kts | 50° |
| 2026-04-21 20:42 | 51.14406 | -3.43849 | 25258 ft | 301 kts | 50° |
| 2026-04-21 20:42 | 51.15593 | -3.41142 | 25259 ft | 301 kts | 50° |
| 2026-04-21 20:42 | 51.16798 | -3.38391 | 25266 ft | 302 kts | 50° |
| 2026-04-21 20:43 | 51.17987 | -3.35628 | 25262 ft | 303 kts | 51° |
| 2026-04-21 20:43 | 51.19056 | -3.32710 | 25268 ft | 305 kts | 57° |
| 2026-04-21 20:43 | 51.20011 | -3.29681 | 25269 ft | 305 kts | 59° |
| 2026-04-21 20:43 | 51.20989 | -3.26667 | 25271 ft | 304 kts | 56° |
| 2026-04-21 20:44 | 51.22017 | -3.23715 | 25271 ft | 304 kts | 55° |
| 2026-04-21 20:44 | 51.23032 | -3.20801 | 25275 ft | 304 kts | 56° |
| 2026-04-21 20:44 | 51.24040 | -3.17821 | 25272 ft | 304 kts | 56° |
| 2026-04-21 20:44 | 51.25039 | -3.14838 | 25273 ft | 304 kts | 56° |
| 2026-04-21 20:45 | 51.26043 | -3.11868 | 25263 ft | 304 kts | 56° |
| 2026-04-21 20:45 | 51.27054 | -3.08891 | 25240 ft | 304 kts | 56° |
| 2026-04-21 20:45 | 51.28038 | -3.05962 | 25222 ft | 295 kts | 56° |
| 2026-04-21 20:45 | 51.29012 | -3.03070 | 24934 ft | 297 kts | 56° |
| 2026-04-21 20:46 | 51.29992 | -3.00176 | 24586 ft | 301 kts | 56° |
| 2026-04-21 20:46 | 51.30988 | -2.97213 | 24238 ft | 304 kts | 56° |
| 2026-04-21 20:46 | 51.31987 | -2.94227 | 23890 ft | 304 kts | 56° |
| 2026-04-21 20:46 | 51.32997 | -2.91232 | 23488 ft | 306 kts | 56° |
| 2026-04-21 20:47 | 51.34006 | -2.88241 | 23083 ft | 304 kts | 56° |
| 2026-04-21 20:47 | 51.34993 | -2.85270 | 22681 ft | 300 kts | 57° |
| 2026-04-21 20:47 | 51.35972 | -2.82325 | 22279 ft | 297 kts | 56° |
| 2026-04-21 20:47 | 51.36935 | -2.79461 | 21888 ft | 295 kts | 56° |
| 2026-04-21 20:48 | 51.37903 | -2.76582 | 21509 ft | 293 kts | 57° |
| 2026-04-21 20:48 | 51.38859 | -2.73710 | 21126 ft | 291 kts | 57° |
| 2026-04-21 20:48 | 51.39804 | -2.70856 | 20750 ft | 289 kts | 57° |
| 2026-04-21 20:48 | 51.40743 | -2.68023 | 20373 ft | 287 kts | 57° |
| 2026-04-21 20:49 | 51.41677 | -2.65208 | 19999 ft | 285 kts | 57° |
| 2026-04-21 20:49 | 51.42605 | -2.62418 | 19641 ft | 283 kts | 58° |
| 2026-04-21 20:49 | 51.43531 | -2.59635 | 19284 ft | 281 kts | 58° |
| 2026-04-21 20:49 | 51.44435 | -2.56906 | 18933 ft | 280 kts | 58° |
| 2026-04-21 20:50 | 51.45346 | -2.54151 | 18579 ft | 278 kts | 58° |
| 2026-04-21 20:50 | 51.46248 | -2.51414 | 18178 ft | 276 kts | 59° |
| 2026-04-21 20:50 | 51.47144 | -2.48695 | 17776 ft | 274 kts | 59° |
| 2026-04-21 20:50 | 51.48033 | -2.45997 | 17369 ft | 272 kts | 59° |
| 2026-04-21 20:51 | 51.48915 | -2.43318 | 16980 ft | 270 kts | 59° |
| 2026-04-21 20:51 | 51.49788 | -2.40666 | 16593 ft | 267 kts | 60° |
| 2026-04-21 20:51 | 51.50649 | -2.38043 | 16214 ft | 264 kts | 60° |
| 2026-04-21 20:51 | 51.51489 | -2.35479 | 15844 ft | 262 kts | 61° |
| 2026-04-21 20:52 | 51.52337 | -2.32895 | 15464 ft | 259 kts | 62° |
| 2026-04-21 20:52 | 51.53175 | -2.30349 | 15097 ft | 255 kts | 62° |
| 2026-04-21 20:52 | 51.53996 | -2.27845 | 14732 ft | 252 kts | 63° |
| 2026-04-21 20:52 | 51.54808 | -2.25345 | 14374 ft | 250 kts | 64° |
| 2026-04-21 20:53 | 51.55601 | -2.22906 | 14013 ft | 248 kts | 64° |
| 2026-04-21 20:53 | 51.56403 | -2.20459 | 13609 ft | 246 kts | 64° |
| 2026-04-21 20:53 | 51.57197 | -2.18021 | 13206 ft | 245 kts | 64° |
| 2026-04-21 20:53 | 51.57977 | -2.15618 | 12809 ft | 244 kts | 64° |
| 2026-04-21 20:54 | 51.58763 | -2.13201 | 12424 ft | 242 kts | 64° |
| 2026-04-21 20:54 | 51.59540 | -2.10808 | 12026 ft | 240 kts | 64° |
| 2026-04-21 20:54 | 51.60313 | -2.08429 | 11654 ft | 239 kts | 64° |
| 2026-04-21 20:54 | 51.61086 | -2.06060 | 11287 ft | 238 kts | 64° |
| 2026-04-21 20:55 | 51.61838 | -2.03696 | 10917 ft | 236 kts | 65° |
| 2026-04-21 20:55 | 51.62555 | -2.01366 | 10557 ft | 234 kts | 66° |
| 2026-04-21 20:55 | 51.63271 | -1.99018 | 10191 ft | 233 kts | 66° |
| 2026-04-21 20:55 | 51.63982 | -1.96679 | 9797 ft | 231 kts | 66° |
| 2026-04-21 20:56 | 51.64688 | -1.94360 | 9393 ft | 230 kts | 66° |
| 2026-04-21 20:56 | 51.65387 | -1.92054 | 9003 ft | 229 kts | 66° |
| 2026-04-21 20:56 | 51.66074 | -1.89782 | 8613 ft | 219 kts | 67° |
| 2026-04-21 20:56 | 51.66718 | -1.87629 | 8236 ft | 209 kts | 67° |
| 2026-04-21 20:57 | 51.67346 | -1.85546 | 7845 ft | 204 kts | 67° |
| 2026-04-21 20:57 | 51.67960 | -1.83536 | 7474 ft | 199 kts | 67° |
| 2026-04-21 20:57 | 51.68560 | -1.81580 | 7116 ft | 196 kts | 67° |
| 2026-04-21 20:57 | 51.69161 | -1.79622 | 6739 ft | 193 kts | 67° |
| 2026-04-21 20:58 | 51.69756 | -1.77692 | 6347 ft | 191 kts | 68° |
| 2026-04-21 20:58 | 51.70345 | -1.75776 | 5955 ft | 189 kts | 67° |
| 2026-04-21 20:58 | 51.70928 | -1.73876 | 5574 ft | 188 kts | 68° |
| 2026-04-21 20:58 | 51.71504 | -1.71992 | 5191 ft | 187 kts | 68° |
| 2026-04-21 20:59 | 51.72073 | -1.70128 | 4809 ft | 187 kts | 67° |
| 2026-04-21 20:59 | 51.72646 | -1.68259 | 4414 ft | 185 kts | 67° |
| 2026-04-21 20:59 | 51.73217 | -1.66399 | 4025 ft | 185 kts | 67° |
| 2026-04-21 20:59 | 51.73783 | -1.64553 | 3645 ft | 183 kts | 67° |
| 2026-04-21 21:00 | 51.74340 | -1.62748 | 3500 ft | 172 kts | 67° |
| 2026-04-21 21:00 | 51.74861 | -1.61104 | 3492 ft | 158 kts | 66° |
| 2026-04-21 21:00 | 51.75361 | -1.59572 | 3493 ft | 150 kts | 66° |
| 2026-04-21 21:00 | 51.75848 | -1.58131 | 3482 ft | 144 kts | 66° |
| 2026-04-21 21:01 | 51.76333 | -1.56731 | 3493 ft | 141 kts | 65° |
| 2026-04-21 21:01 | 51.76818 | -1.55356 | 3502 ft | 140 kts | 65° |
| 2026-04-21 21:01 | 51.77299 | -1.54016 | 3502 ft | 140 kts | 65° |
| 2026-04-21 21:01 | 51.77800 | -1.52639 | 3497 ft | 140 kts | 64° |
| 2026-04-21 21:02 | 51.78290 | -1.51302 | 3492 ft | 140 kts | 64° |
| 2026-04-21 21:02 | 51.78785 | -1.49966 | 3491 ft | 138 kts | 64° |
| 2026-04-21 21:02 | 51.79286 | -1.48638 | 3493 ft | 138 kts | 64° |
| 2026-04-21 21:02 | 51.79791 | -1.47318 | 3497 ft | 137 kts | 64° |
| 2026-04-21 21:03 | 51.80290 | -1.46015 | 3491 ft | 139 kts | 64° |
| 2026-04-21 21:03 | 51.80798 | -1.44690 | 3491 ft | 139 kts | 64° |
| 2026-04-21 21:03 | 51.81306 | -1.43364 | 3493 ft | 138 kts | 63° |
| 2026-04-21 21:03 | 51.81816 | -1.42045 | 3496 ft | 137 kts | 64° |
| 2026-04-21 21:04 | 51.82315 | -1.40751 | 3496 ft | 137 kts | 64° |
| 2026-04-21 21:04 | 51.82820 | -1.39437 | 3506 ft | 138 kts | 64° |
| 2026-04-21 21:04 | 51.83333 | -1.38097 | 3508 ft | 140 kts | 64° |
| 2026-04-21 21:04 | 51.83843 | -1.36762 | 3506 ft | 139 kts | 64° |
| 2026-04-21 21:05 | 51.84227 | -1.35360 | 3509 ft | 134 kts | 74° |
| 2026-04-21 21:05 | 51.84466 | -1.33921 | 3502 ft | 131 kts | 81° |
| 2026-04-21 21:05 | 51.84660 | -1.32507 | 3505 ft | 130 kts | 81° |
| 2026-04-21 21:05 | 51.84916 | -1.31105 | 3468 ft | 133 kts | 66° |
| 2026-04-21 21:06 | 51.85700 | -1.30289 | 3467 ft | 145 kts | 21° |
| 2026-04-21 21:06 | 51.86703 | -1.30737 | 3480 ft | 163 kts | 332° |
| 2026-04-21 21:06 | 51.87288 | -1.32339 | 3493 ft | 173 kts | 283° |
| 2026-04-21 21:06 | 51.87464 | -1.34263 | 3497 ft | 171 kts | 276° |
| 2026-04-21 21:07 | 51.87635 | -1.36170 | 3494 ft | 171 kts | 277° |
| 2026-04-21 21:07 | 51.87799 | -1.38057 | 3488 ft | 171 kts | 278° |
| 2026-04-21 21:07 | 51.87957 | -1.39960 | 3496 ft | 170 kts | 278° |
| 2026-04-21 21:07 | 51.88101 | -1.41860 | 3488 ft | 171 kts | 277° |
| 2026-04-21 21:08 | 51.87765 | -1.43653 | 3469 ft | 164 kts | 228° |
| 2026-04-21 21:08 | 51.86871 | -1.44528 | 3474 ft | 142 kts | 176° |
| 2026-04-21 21:08 | 51.86060 | -1.44095 | 3487 ft | 118 kts | 125° |
| 2026-04-21 21:08 | 51.85775 | -1.42908 | 3491 ft | 113 kts | 96° |
| 2026-04-21 21:09 | 51.85574 | -1.41669 | 3489 ft | 114 kts | 100° |
| 2026-04-21 21:09 | 51.85380 | -1.40446 | 3495 ft | 114 kts | 99° |
| 2026-04-21 21:09 | 51.85193 | -1.39201 | 3488 ft | 113 kts | 99° |
| 2026-04-21 21:09 | 51.85012 | -1.37951 | 3499 ft | 115 kts | 101° |
| 2026-04-21 21:10 | 51.84805 | -1.36692 | 3501 ft | 117 kts | 103° |
| 2026-04-21 21:10 | 51.84599 | -1.35422 | 3495 ft | 114 kts | 102° |
| 2026-04-21 21:10 | 51.84401 | -1.34185 | 3497 ft | 113 kts | 102° |
| 2026-04-21 21:10 | 51.84202 | -1.32951 | 3504 ft | 114 kts | 102° |
| 2026-04-21 21:11 | 51.83760 | -1.31895 | 3494 ft | 126 kts | 140° |
| 2026-04-21 21:11 | 51.82931 | -1.31372 | 3495 ft | 127 kts | 153° |
| 2026-04-21 21:11 | 51.82131 | -1.30892 | 3496 ft | 119 kts | 152° |
| 2026-04-21 21:11 | 51.81370 | -1.30448 | 3492 ft | 114 kts | 150° |
| 2026-04-21 21:12 | 51.80626 | -1.30056 | 3491 ft | 111 kts | 150° |
| 2026-04-21 21:12 | 51.79893 | -1.29705 | 3495 ft | 109 kts | 150° |
| 2026-04-21 21:12 | 51.79166 | -1.29339 | 3386 ft | 120 kts | 150° |
| 2026-04-21 21:12 | 51.78301 | -1.28846 | 3074 ft | 141 kts | 152° |
| 2026-04-21 21:13 | 51.77340 | -1.28267 | 2758 ft | 152 kts | 150° |
| 2026-04-21 21:13 | 51.76338 | -1.27669 | 2469 ft | 154 kts | 150° |
| 2026-04-21 21:13 | 51.75331 | -1.27089 | 2209 ft | 153 kts | 150° |
| 2026-04-21 21:13 | 51.74678 | -1.26733 | 2034 ft | 145 kts | 152° |
| 2026-04-21 21:14 | 51.73739 | -1.26240 | 1816 ft | 137 kts | 150° |
| 2026-04-21 21:14 | 51.72529 | -1.26671 | 1764 ft | 144 kts | 214° |
| 2026-04-21 21:14 | 51.72208 | -1.27590 | 1763 ft | 141 kts | 254° |
| 2026-04-21 21:14 | 51.72405 | -1.28975 | 1776 ft | 119 kts | 321° |
| 2026-04-21 21:15 | 51.73214 | -1.29923 | 1739 ft | 108 kts | 341° |
| 2026-04-21 21:15 | 51.73612 | -1.30423 | 1730 ft | 104 kts | 340° |
| 2026-04-21 21:15 | 51.74185 | -1.31076 | 1663 ft | 102 kts | 342° |
| 2026-04-21 21:15 | 51.74771 | -1.31739 | 1553 ft | 102 kts | 342° |
| 2026-04-21 21:16 | 51.75350 | -1.32399 | 1491 ft | 100 kts | 341° |
| 2026-04-21 21:16 | 51.75918 | -1.33023 | 1401 ft | 99 kts | 341° |
| 2026-04-21 21:16 | 51.76491 | -1.33626 | 1307 ft | 99 kts | 343° |
| 2026-04-21 21:16 | 51.77142 | -1.33933 | 1309 ft | 96 kts | 7° |
| 2026-04-21 21:17 | 51.77821 | -1.33964 | 1326 ft | 100 kts | 17° |
| 2026-04-21 21:17 | 51.78508 | -1.33764 | 1377 ft | 104 kts | 26° |
| 2026-04-21 21:17 | 51.79272 | -1.33459 | 1311 ft | 118 kts | 28° |
| 2026-04-21 21:17 | 51.79986 | -1.33092 | 1361 ft | 107 kts | 31° |
| 2026-04-21 21:18 | 51.80682 | -1.32878 | 1128 ft | 90 kts | 24° |
| 2026-04-21 21:18 | 51.81271 | -1.32711 | 840 ft | 86 kts | 21° |
| 2026-04-21 21:18 | 51.81896 | -1.32543 | 676 ft | 94 kts | 14° |
| 2026-04-21 21:18 | 51.82545 | -1.32354 | 455 ft | 96 kts | 13° |
| 2026-04-21 21:19 | 51.83202 | -1.32151 | 277 ft | 93 kts | 14° |
| 2026-04-21 21:19 | 51.83751 | -1.31967 | 265 ft | 69 kts | 9° |
| 2026-04-21 21:19 | 51.83946 | -1.31915 | 263 ft | 6 kts | 12° |
| 2026-04-21 21:19 | 51.83978 | -1.31851 | 263 ft | 10 kts | 119° |
| 2026-04-21 21:20 | 51.83939 | -1.31689 | 264 ft | 20 kts | 114° |
| 2026-04-21 21:20 | 51.83881 | -1.31483 | 264 ft | 21 kts | 114° |
| 2026-04-21 21:20 | 51.83840 | -1.31352 | 264 ft | 1 kts | 152° |
| 2026-04-21 21:20 | 51.83801 | -1.31330 | 264 ft | 11 kts | 160° |
| 2026-04-21 21:21 | 51.83723 | -1.31290 | 264 ft | 13 kts | 182° |
| 2026-04-21 21:21 | 51.83625 | -1.31336 | 264 ft | 17 kts | 202° |
| 2026-04-21 21:21 | 51.83520 | -1.31413 | 263 ft | 19 kts | 203° |
| 2026-04-21 21:21 | 51.83423 | -1.31512 | 263 ft | 13 kts | 238° |
| 2026-04-21 21:22 | 51.83357 | -1.31634 | 263 ft | 16 kts | 205° |
| 2026-04-21 21:22 | 51.83252 | -1.31646 | 263 ft | 6 kts | 159° |
| 2026-04-21 21:22 | 51.83231 | -1.31630 | 263 ft | 0 kts | 148° |
| 2026-04-21 21:22 | 51.83226 | -1.31625 | 263 ft | 2 kts | 147° |
| 2026-04-21 21:23 | 51.83188 | -1.31594 | 263 ft | 9 kts | 158° |
| 2026-04-21 21:23 | 51.83127 | -1.31547 | 263 ft | 8 kts | 156° |
| 2026-04-21 21:23 | 51.83122 | -1.31528 | 263 ft | 4 kts | 66° |
| 2026-04-21 21:23 | 51.83141 | -1.31444 | 263 ft | 7 kts | 100° |
| 2026-04-21 21:24 | 51.83107 | -1.31403 | 263 ft | 8 kts | 159° |
| 2026-04-21 21:24 | 51.83083 | -1.31432 | 263 ft | 6 kts | 278° |
| 2026-04-21 21:24 | 51.83103 | -1.31460 | 263 ft | 3 kts | 32° |
| 2026-04-21 21:24 | 51.83106 | -1.31457 | 263 ft | 0 kts | 32° |